createdAt,value
2018-06-23T00:00:03.549Z,11.04
2018-06-23T00:01:03.712Z,11.10
2018-06-23T00:02:03.893Z,11.17
2018-06-23T00:03:04.047Z,11.14
2018-06-23T00:04:04.219Z,11.19
2018-06-23T00:05:04.391Z,11.14
2018-06-23T00:06:04.583Z,11.19
2018-06-23T00:07:04.765Z,11.22
2018-06-23T00:08:04.912Z,11.18
2018-06-23T00:09:05.065Z,11.14
2018-06-23T00:10:05.249Z,11.15
2018-06-23T00:11:05.412Z,11.07
2018-06-23T00:12:05.570Z,11.10
2018-06-23T00:13:05.735Z,11.14
2018-06-23T00:14:05.910Z,10.92
2018-06-23T00:15:06.073Z,10.96
2018-06-23T00:16:06.253Z,10.90
2018-06-23T00:17:06.416Z,10.82
2018-06-23T00:18:06.590Z,10.84
2018-06-23T00:19:06.736Z,10.90
2018-06-23T00:20:06.898Z,10.84
2018-06-23T00:21:07.051Z,10.86
2018-06-23T00:22:07.211Z,10.96
2018-06-23T00:23:07.393Z,10.92
2018-06-23T00:24:07.562Z,11.05
2018-06-23T00:25:07.742Z,10.94
2018-06-23T00:26:07.902Z,10.89
2018-06-23T00:27:08.087Z,10.93
2018-06-23T00:28:08.238Z,10.96
2018-06-23T00:29:08.407Z,10.97
2018-06-23T00:30:08.585Z,10.92
2018-06-23T00:31:08.745Z,10.99
2018-06-23T00:32:08.944Z,10.96
2018-06-23T00:33:09.097Z,10.81
2018-06-23T00:34:09.287Z,10.86
2018-06-23T00:35:09.459Z,10.76
2018-06-23T00:36:09.627Z,10.82
2018-06-23T00:37:09.769Z,10.89
2018-06-23T00:38:09.941Z,10.82
2018-06-23T00:39:10.106Z,10.87
2018-06-23T00:40:10.290Z,10.72
2018-06-23T00:41:10.433Z,10.79
2018-06-23T00:42:10.616Z,10.76
2018-06-23T00:43:10.784Z,10.82
2018-06-23T00:44:10.961Z,10.69
2018-06-23T00:45:11.149Z,10.61
2018-06-23T00:46:11.329Z,10.64
2018-06-23T00:47:11.466Z,10.64
2018-06-23T00:48:11.634Z,10.64
2018-06-23T00:49:11.813Z,10.64
2018-06-23T00:50:11.968Z,10.60
2018-06-23T00:51:12.147Z,10.48
2018-06-23T00:52:12.330Z,10.49
2018-06-23T00:53:12.480Z,10.46
2018-06-23T00:54:13.657Z,10.57
2018-06-23T00:55:12.866Z,10.60
2018-06-23T00:56:13.032Z,10.49
2018-06-23T00:57:13.195Z,10.56
2018-06-23T00:58:13.371Z,10.60
2018-06-23T00:59:13.884Z,10.59
2018-06-23T01:00:13.715Z,10.53
2018-06-23T01:01:13.901Z,10.74
2018-06-23T01:02:14.099Z,10.72
2018-06-23T01:03:14.468Z,10.81
2018-06-23T01:04:14.387Z,10.78
2018-06-23T01:05:14.578Z,10.92
2018-06-23T01:06:14.739Z,10.79
2018-06-23T01:07:14.943Z,10.93
2018-06-23T01:08:15.085Z,10.87
2018-06-23T01:09:15.244Z,10.84
2018-06-23T01:10:15.430Z,10.84
2018-06-23T01:11:15.609Z,10.84
2018-06-23T01:12:15.778Z,10.84
2018-06-23T01:13:15.985Z,11.00
2018-06-23T01:14:16.131Z,10.90
2018-06-23T01:15:16.299Z,11.07
2018-06-23T01:16:16.455Z,11.10
2018-06-23T01:17:16.639Z,11.14
2018-06-23T01:18:16.825Z,11.25
2018-06-23T01:19:16.963Z,11.11
2018-06-23T01:20:17.129Z,11.10
2018-06-23T01:21:17.292Z,11.02
2018-06-23T01:22:17.446Z,11.05
2018-06-23T01:23:17.630Z,11.02
2018-06-23T01:24:17.797Z,10.86
2018-06-23T01:25:17.938Z,10.92
2018-06-23T01:26:18.114Z,10.94
2018-06-23T01:27:18.296Z,10.86
2018-06-23T01:28:18.444Z,10.92
2018-06-23T01:29:18.637Z,10.86
2018-06-23T01:30:18.801Z,10.90
2018-06-23T01:31:18.965Z,10.84
2018-06-23T01:32:19.164Z,10.86
2018-06-23T01:33:19.302Z,10.87
2018-06-23T01:34:19.464Z,10.87
2018-06-23T01:35:19.623Z,10.74
2018-06-23T01:36:19.827Z,10.71
2018-06-23T01:37:19.963Z,10.71
2018-06-23T01:38:20.144Z,10.69
2018-06-23T01:39:20.326Z,10.61
2018-06-23T01:40:20.475Z,10.69
2018-06-23T01:41:20.659Z,10.75
2018-06-23T01:42:20.828Z,10.61
2018-06-23T01:43:21.022Z,10.71
2018-06-23T01:44:21.152Z,10.69
2018-06-23T01:45:21.322Z,10.61
2018-06-23T01:46:21.508Z,10.72
2018-06-23T01:47:21.651Z,10.67
2018-06-23T01:48:21.836Z,10.68
2018-06-23T01:49:21.994Z,10.79
2018-06-23T01:50:22.156Z,10.74
2018-06-23T01:51:22.329Z,10.76
2018-06-23T01:52:22.503Z,10.81
2018-06-23T01:53:22.675Z,10.79
2018-06-23T01:54:22.827Z,10.84
2018-06-23T01:55:22.994Z,10.79
2018-06-23T01:56:23.178Z,10.78
2018-06-23T01:57:23.345Z,10.84
2018-06-23T01:58:23.520Z,10.87
2018-06-23T01:59:23.676Z,10.75
2018-06-23T02:00:23.843Z,10.79
2018-06-23T02:01:24.006Z,10.94
2018-06-23T02:02:24.173Z,10.82
2018-06-23T02:03:24.333Z,10.82
2018-06-23T02:04:24.502Z,10.90
2018-06-23T02:05:24.670Z,10.87
2018-06-23T02:06:24.836Z,10.89
2018-06-23T02:07:25.013Z,10.87
2018-06-23T02:08:25.182Z,10.92
2018-06-23T02:09:25.343Z,10.96
2018-06-23T02:10:25.510Z,10.94
2018-06-23T02:11:25.679Z,10.90
2018-06-23T02:12:25.838Z,10.74
2018-06-23T02:13:26.017Z,10.84
2018-06-23T02:14:26.185Z,10.86
2018-06-23T02:15:26.353Z,10.56
2018-06-23T02:16:26.517Z,10.67
2018-06-23T02:17:26.683Z,10.75
2018-06-23T02:18:26.857Z,10.79
2018-06-23T02:19:27.030Z,10.78
2018-06-23T02:20:27.212Z,10.93
2018-06-23T02:21:27.362Z,10.78
2018-06-23T02:22:27.516Z,10.82
2018-06-23T02:23:27.695Z,10.64
2018-06-23T02:25:28.053Z,10.64
2018-06-23T02:26:28.233Z,10.69
2018-06-23T02:27:28.420Z,10.68
2018-06-23T02:28:28.600Z,10.60
2018-06-23T02:29:28.781Z,10.49
2018-06-23T02:30:28.961Z,10.35
2018-06-23T02:31:29.144Z,10.51
2018-06-23T02:32:29.322Z,10.51
2018-06-23T02:33:29.493Z,10.59
2018-06-23T02:34:29.919Z,10.48
2018-06-23T02:35:29.837Z,10.57
2018-06-23T02:36:30.025Z,10.54
2018-06-23T02:37:30.187Z,10.42
2018-06-23T02:38:30.370Z,10.63
2018-06-23T02:39:30.579Z,10.59
2018-06-23T02:40:30.702Z,10.56
2018-06-23T02:41:30.888Z,10.56
2018-06-23T02:42:31.073Z,10.60
2018-06-23T02:43:31.230Z,10.60
2018-06-23T02:44:31.401Z,10.67
2018-06-23T02:45:31.575Z,10.69
2018-06-23T02:46:31.754Z,10.68
2018-06-23T02:47:31.931Z,10.60
2018-06-23T02:48:32.111Z,10.59
2018-06-23T02:49:32.295Z,10.54
2018-06-23T02:50:32.476Z,10.51
2018-06-23T02:51:32.654Z,10.60
2018-06-23T02:52:32.840Z,10.51
2018-06-23T02:53:33.007Z,10.44
2018-06-23T02:54:33.190Z,10.54
2018-06-23T02:55:33.369Z,10.49
2018-06-23T02:56:33.543Z,10.46
2018-06-23T02:57:33.726Z,10.48
2018-06-23T02:58:33.907Z,10.53
2018-06-23T02:59:34.084Z,10.53
2018-06-23T03:00:34.276Z,10.38
2018-06-23T03:01:34.452Z,10.56
2018-06-23T03:02:34.641Z,10.40
2018-06-23T03:03:34.816Z,10.48
2018-06-23T03:04:34.984Z,10.44
2018-06-23T03:05:35.174Z,10.49
2018-06-23T03:06:35.350Z,10.41
2018-06-23T03:07:35.521Z,10.22
2018-06-23T03:08:35.701Z,10.22
2018-06-23T03:09:35.873Z,10.40
2018-06-23T03:10:36.053Z,10.35
2018-06-23T03:11:36.236Z,10.48
2018-06-23T03:12:36.401Z,10.46
2018-06-23T03:13:36.584Z,10.42
2018-06-23T03:14:36.757Z,10.41
2018-06-23T03:15:36.936Z,10.51
2018-06-23T03:16:37.115Z,10.41
2018-06-23T03:17:37.296Z,10.42
2018-06-23T03:18:37.483Z,10.31
2018-06-23T03:19:37.650Z,10.40
2018-06-23T03:20:37.849Z,10.35
2018-06-23T03:21:37.995Z,10.31
2018-06-23T03:22:38.168Z,10.44
2018-06-23T03:23:38.367Z,10.51
2018-06-23T03:24:38.526Z,10.59
2018-06-23T03:25:38.737Z,10.63
2018-06-23T03:26:38.878Z,10.72
2018-06-23T03:27:39.044Z,10.76
2018-06-23T03:28:39.226Z,10.72
2018-06-23T03:29:39.413Z,10.79
2018-06-23T03:30:40.080Z,10.89
2018-06-23T03:31:39.742Z,10.82
2018-06-23T03:32:39.917Z,10.78
2018-06-23T03:33:40.086Z,10.87
2018-06-23T03:34:40.267Z,10.87
2018-06-23T03:35:40.439Z,10.92
2018-06-23T03:36:40.607Z,10.93
2018-06-23T03:37:40.789Z,10.94
2018-06-23T03:38:40.963Z,10.89
2018-06-23T03:39:41.137Z,10.89
2018-06-23T03:40:41.316Z,10.82
2018-06-23T03:41:41.501Z,10.87
2018-06-23T03:42:41.686Z,10.92
2018-06-23T03:43:41.868Z,10.76
2018-06-23T03:44:42.047Z,10.79
2018-06-23T03:45:42.225Z,10.76
2018-06-23T03:46:42.401Z,10.76
2018-06-23T03:47:42.578Z,10.84
2018-06-23T03:48:42.748Z,10.72
2018-06-23T03:49:42.919Z,10.79
2018-06-23T03:50:43.116Z,10.82
2018-06-23T03:51:43.281Z,10.81
2018-06-23T03:52:43.445Z,10.72
2018-06-23T03:53:43.618Z,10.86
2018-06-23T03:54:43.791Z,10.93
2018-06-23T03:55:43.966Z,10.81
2018-06-23T03:56:44.142Z,10.97
2018-06-23T03:57:44.309Z,11.00
2018-06-23T03:58:44.481Z,10.97
2018-06-23T03:59:44.665Z,10.99
2018-06-23T04:00:44.845Z,11.12
2018-06-23T04:01:45.024Z,10.89
2018-06-23T04:02:45.203Z,10.89
2018-06-23T04:03:45.377Z,10.99
2018-06-23T04:04:45.560Z,11.10
2018-06-23T04:05:45.735Z,11.08
2018-06-23T04:06:45.911Z,10.97
2018-06-23T04:07:46.078Z,11.08
2018-06-23T04:08:46.260Z,11.14
2018-06-23T04:09:46.448Z,11.15
2018-06-23T04:10:46.634Z,11.18
2018-06-23T04:11:46.807Z,11.12
2018-06-23T04:12:46.967Z,11.18
2018-06-23T04:13:47.197Z,11.18
2018-06-23T04:14:47.358Z,11.10
2018-06-23T04:15:47.509Z,10.94
2018-06-23T04:16:47.740Z,10.99
2018-06-23T04:17:47.889Z,10.99
2018-06-23T04:18:48.040Z,10.89
2018-06-23T04:19:48.195Z,10.99
2018-06-23T04:20:48.622Z,11.05
2018-06-23T04:21:48.524Z,11.00
2018-06-23T04:22:48.681Z,10.94
2018-06-23T04:23:48.858Z,11.07
2018-06-23T04:24:49.019Z,11.15
2018-06-23T04:25:49.204Z,11.12
2018-06-23T04:26:49.386Z,11.07
2018-06-23T04:27:49.529Z,11.22
2018-06-23T04:28:49.710Z,11.17
2018-06-23T04:29:49.890Z,11.18
2018-06-23T04:30:50.064Z,11.25
2018-06-23T04:31:50.248Z,11.32
2018-06-23T04:32:50.422Z,11.26
2018-06-23T04:33:50.606Z,11.22
2018-06-23T04:34:50.776Z,11.36
2018-06-23T04:35:50.954Z,11.29
2018-06-23T04:36:51.124Z,11.26
2018-06-23T04:37:51.305Z,11.18
2018-06-23T04:38:51.486Z,11.25
2018-06-23T04:39:51.664Z,11.29
2018-06-23T04:40:51.841Z,11.35
2018-06-23T04:41:52.025Z,11.41
2018-06-23T04:42:52.201Z,11.43
2018-06-23T04:43:52.373Z,11.41
2018-06-23T04:44:52.543Z,11.47
2018-06-23T04:45:52.717Z,11.48
2018-06-23T04:46:52.896Z,11.54
2018-06-23T04:47:53.081Z,11.70
2018-06-23T04:48:53.497Z,11.50
2018-06-23T04:49:53.439Z,11.75
2018-06-23T04:50:53.608Z,11.65
2018-06-23T04:52:53.968Z,11.73
2018-06-23T04:53:54.147Z,11.72
2018-06-23T04:54:54.322Z,11.63
2018-06-23T04:55:54.490Z,11.81
2018-06-23T04:56:54.670Z,11.84
2018-06-23T04:57:54.852Z,11.83
2018-06-23T04:58:55.042Z,11.81
2018-06-23T04:59:55.225Z,11.84
2018-06-23T05:00:55.400Z,11.72
2018-06-23T05:01:55.583Z,11.70
2018-06-23T05:02:55.755Z,11.73
2018-06-23T05:03:55.930Z,11.90
2018-06-23T05:04:56.116Z,11.88
2018-06-23T05:05:56.274Z,11.95
2018-06-23T05:06:56.453Z,11.97
2018-06-23T05:07:56.630Z,12.02
2018-06-23T05:08:56.813Z,12.10
2018-06-23T05:09:56.986Z,12.12
2018-06-23T05:10:57.163Z,12.12
2018-06-23T05:11:57.340Z,12.17
2018-06-23T05:12:57.521Z,12.21
2018-06-23T05:13:57.700Z,12.09
2018-06-23T05:14:57.893Z,12.24
2018-06-23T05:15:58.073Z,12.28
2018-06-23T05:16:58.255Z,12.21
2018-06-23T05:17:58.418Z,12.25
2018-06-23T05:18:58.598Z,12.24
2018-06-23T05:19:58.772Z,12.37
2018-06-23T05:20:58.958Z,12.36
2018-06-23T05:21:59.121Z,12.35
2018-06-23T05:22:59.311Z,12.43
2018-06-23T05:23:59.495Z,12.25
2018-06-23T05:24:59.669Z,12.28
2018-06-23T05:25:59.897Z,12.29
2018-06-23T05:27:00.038Z,12.36
2018-06-23T05:28:00.214Z,12.43
2018-06-23T05:29:00.394Z,12.46
2018-06-23T05:30:00.573Z,12.68
2018-06-23T05:31:00.760Z,12.70
2018-06-23T05:32:00.940Z,12.73
2018-06-23T05:33:01.119Z,12.73
2018-06-23T05:34:01.300Z,12.80
2018-06-23T05:35:01.490Z,13.01
2018-06-23T05:36:01.666Z,12.98
2018-06-23T05:37:01.838Z,13.03
2018-06-23T05:38:02.026Z,13.23
2018-06-23T05:39:02.201Z,13.20
2018-06-23T05:40:02.385Z,13.16
2018-06-23T05:41:02.560Z,13.12
2018-06-23T05:42:02.744Z,13.31
2018-06-23T05:43:02.921Z,13.33
2018-06-23T05:44:03.105Z,13.47
2018-06-23T05:45:03.280Z,13.54
2018-06-23T05:46:03.465Z,13.60
2018-06-23T05:47:03.639Z,13.60
2018-06-23T05:48:03.815Z,13.56
2018-06-23T05:49:04.001Z,13.46
2018-06-23T05:50:04.181Z,13.41
2018-06-23T05:51:04.380Z,13.59
2018-06-23T05:52:04.538Z,13.60
2018-06-23T05:53:04.720Z,13.70
2018-06-23T05:54:04.890Z,13.68
2018-06-23T05:55:05.047Z,13.65
2018-06-23T05:56:05.224Z,13.56
2018-06-23T05:57:05.405Z,13.60
2018-06-23T05:58:05.579Z,13.70
2018-06-23T05:59:05.761Z,13.83
2018-06-23T06:00:05.940Z,13.87
2018-06-23T06:01:06.134Z,14.04
2018-06-23T06:02:06.298Z,14.84
2018-06-23T06:03:06.478Z,15.27
2018-06-23T06:04:06.646Z,15.86
2018-06-23T06:05:06.827Z,16.20
2018-06-23T06:06:07.010Z,16.57
2018-06-23T06:07:07.252Z,16.20
2018-06-23T06:08:07.369Z,15.86
2018-06-23T06:09:07.559Z,15.68
2018-06-23T06:10:07.734Z,15.58
2018-06-23T06:11:07.927Z,15.36
2018-06-23T06:12:08.104Z,15.04
2018-06-23T06:13:08.292Z,14.84
2018-06-23T06:14:08.463Z,14.62
2018-06-23T06:15:08.641Z,14.59
2018-06-23T06:16:08.817Z,14.45
2018-06-23T06:17:09.001Z,14.30
2018-06-23T06:18:09.186Z,14.26
2018-06-23T06:19:09.369Z,14.18
2018-06-23T06:20:09.557Z,14.20
2018-06-23T06:21:09.742Z,14.14
2018-06-23T06:22:09.921Z,14.25
2018-06-23T06:23:10.110Z,14.15
2018-06-23T06:24:10.305Z,14.08
2018-06-23T06:25:10.487Z,13.99
2018-06-23T06:26:10.662Z,14.08
2018-06-23T06:27:10.839Z,13.95
2018-06-23T06:28:11.030Z,13.97
2018-06-23T06:29:11.214Z,14.05
2018-06-23T06:30:11.402Z,14.12
2018-06-23T06:31:12.124Z,14.05
2018-06-23T06:32:11.733Z,14.04
2018-06-23T06:33:11.909Z,13.97
2018-06-23T06:34:12.088Z,14.03
2018-06-23T06:35:12.267Z,14.10
2018-06-23T06:36:12.448Z,14.15
2018-06-23T06:37:12.626Z,14.15
2018-06-23T06:38:12.806Z,14.23
2018-06-23T06:39:12.992Z,14.20
2018-06-23T06:40:13.234Z,14.17
2018-06-23T06:41:13.341Z,14.18
2018-06-23T06:42:13.530Z,14.26
2018-06-23T06:43:13.698Z,14.20
2018-06-23T06:44:13.867Z,14.14
2018-06-23T06:45:14.060Z,14.30
2018-06-23T06:46:14.233Z,14.30
2018-06-23T06:47:14.417Z,14.36
2018-06-23T06:48:14.595Z,14.32
2018-06-23T06:49:14.766Z,14.35
2018-06-23T06:50:14.924Z,14.33
2018-06-23T06:51:15.116Z,14.32
2018-06-23T06:52:15.297Z,14.29
2018-06-23T06:53:15.466Z,14.28
2018-06-23T06:54:15.615Z,14.30
2018-06-23T06:55:15.789Z,14.28
2018-06-23T06:56:15.963Z,14.37
2018-06-23T06:57:16.210Z,14.30
2018-06-23T06:58:16.286Z,14.28
2018-06-23T06:59:16.469Z,14.41
2018-06-23T07:00:16.659Z,14.44
2018-06-23T07:01:16.820Z,14.58
2018-06-23T07:02:16.988Z,14.53
2018-06-23T07:03:17.173Z,14.44
2018-06-23T07:04:17.339Z,14.50
2018-06-23T07:05:17.522Z,14.59
2018-06-23T07:06:17.692Z,14.73
2018-06-23T07:07:17.858Z,14.72
2018-06-23T07:08:18.040Z,14.72
2018-06-23T07:09:18.216Z,14.58
2018-06-23T07:10:18.379Z,14.65
2018-06-23T07:11:18.556Z,14.81
2018-06-23T07:12:18.736Z,15.04
2018-06-23T07:13:18.913Z,15.10
2018-06-23T07:14:19.102Z,15.00
2018-06-23T07:15:19.286Z,15.07
2018-06-23T07:16:19.465Z,15.09
2018-06-23T07:17:19.664Z,15.19
2018-06-23T07:18:19.810Z,15.04
2018-06-23T07:19:19.966Z,15.02
2018-06-23T07:20:20.166Z,14.97
2018-06-23T07:21:20.337Z,14.79
2018-06-23T07:22:20.491Z,14.89
2018-06-23T07:23:20.661Z,14.92
2018-06-23T07:24:20.849Z,14.92
2018-06-23T07:25:21.029Z,14.96
2018-06-23T07:26:21.219Z,15.02
2018-06-23T07:27:21.597Z,14.92
2018-06-23T07:28:21.529Z,15.03
2018-06-23T07:29:21.715Z,14.72
2018-06-23T07:30:21.894Z,14.69
2018-06-23T07:31:22.074Z,14.69
2018-06-23T07:32:22.273Z,14.60
2018-06-23T07:33:22.413Z,14.51
2018-06-23T07:34:22.695Z,14.36
2018-06-23T07:35:22.773Z,14.53
2018-06-23T07:36:22.965Z,14.45
2018-06-23T07:37:23.111Z,14.43
2018-06-23T07:38:23.283Z,14.40
2018-06-23T07:39:23.458Z,14.48
2018-06-23T07:41:23.804Z,14.59
2018-06-23T07:43:24.160Z,14.48
2018-06-23T07:44:24.343Z,14.51
2018-06-23T07:45:24.528Z,14.53
2018-06-23T07:46:24.698Z,14.59
2018-06-23T07:47:24.881Z,14.54
2018-06-23T07:48:25.063Z,14.59
2018-06-23T07:49:25.243Z,14.62
2018-06-23T07:50:25.425Z,14.60
2018-06-23T07:51:25.602Z,14.65
2018-06-23T07:52:25.809Z,14.68
2018-06-23T07:53:25.973Z,14.58
2018-06-23T07:54:26.155Z,14.63
2018-06-23T07:55:26.341Z,14.60
2018-06-23T07:56:26.516Z,14.63
2018-06-23T07:57:26.725Z,14.68
2018-06-23T07:58:26.860Z,14.58
2018-06-23T07:59:27.043Z,14.58
2018-06-23T08:00:27.234Z,14.32
2018-06-23T08:01:27.432Z,14.32
2018-06-23T08:02:27.590Z,14.43
2018-06-23T08:03:27.765Z,14.40
2018-06-23T08:04:27.953Z,14.53
2018-06-23T08:05:28.132Z,14.60
2018-06-23T08:06:28.316Z,14.70
2018-06-23T08:07:28.499Z,14.72
2018-06-23T08:08:28.683Z,14.58
2018-06-23T08:09:28.869Z,14.62
2018-06-23T08:10:29.048Z,14.70
2018-06-23T08:11:30.226Z,14.73
2018-06-23T08:12:29.418Z,14.81
2018-06-23T08:13:29.597Z,14.92
2018-06-23T08:14:37.400Z,14.91
2018-06-23T08:15:29.947Z,14.84
2018-06-23T08:16:30.134Z,14.84
2018-06-23T08:17:30.312Z,14.88
2018-06-23T08:18:30.503Z,14.97
2018-06-23T08:19:30.670Z,15.06
2018-06-23T08:20:30.851Z,15.04
2018-06-23T08:21:31.038Z,15.21
2018-06-23T08:22:31.215Z,15.25
2018-06-23T08:23:31.383Z,15.27
2018-06-23T08:24:31.545Z,15.21
2018-06-23T08:25:31.731Z,15.22
2018-06-23T08:26:32.049Z,15.03
2018-06-23T08:27:32.081Z,15.22
2018-06-23T08:28:32.256Z,15.09
2018-06-23T08:29:32.448Z,15.18
2018-06-23T08:30:32.618Z,15.09
2018-06-23T08:31:32.791Z,15.27
2018-06-23T08:32:32.987Z,15.39
2018-06-23T08:33:33.151Z,15.28
2018-06-23T08:34:33.326Z,15.39
2018-06-23T08:35:33.482Z,15.36
2018-06-23T08:36:33.641Z,15.47
2018-06-23T08:37:33.821Z,15.64
2018-06-23T08:38:34.002Z,15.65
2018-06-23T08:39:34.164Z,15.77
2018-06-23T08:40:34.332Z,15.67
2018-06-23T08:41:34.509Z,15.73
2018-06-23T08:42:34.676Z,15.64
2018-06-23T08:43:34.857Z,15.73
2018-06-23T08:44:35.003Z,15.67
2018-06-23T08:45:35.176Z,15.67
2018-06-23T08:46:35.351Z,15.58
2018-06-23T08:47:35.527Z,15.55
2018-06-23T08:48:35.707Z,15.62
2018-06-23T08:49:35.879Z,15.68
2018-06-23T08:50:36.065Z,15.75
2018-06-23T08:51:36.266Z,15.70
2018-06-23T08:52:36.413Z,15.59
2018-06-23T08:53:36.593Z,15.68
2018-06-23T08:54:36.765Z,15.64
2018-06-23T08:55:36.943Z,15.52
2018-06-23T08:56:37.099Z,15.54
2018-06-23T08:57:37.284Z,15.36
2018-06-23T08:58:37.452Z,15.43
2018-06-23T08:59:37.624Z,15.59
2018-06-23T09:00:37.806Z,15.65
2018-06-23T09:01:37.974Z,15.65
2018-06-23T09:02:38.177Z,15.76
2018-06-23T09:03:38.372Z,15.72
2018-06-23T09:04:38.551Z,15.68
2018-06-23T09:05:38.703Z,15.72
2018-06-23T09:06:38.885Z,15.61
2018-06-23T09:07:39.064Z,15.64
2018-06-23T09:08:39.250Z,15.73
2018-06-23T09:09:39.425Z,15.95
2018-06-23T09:10:39.640Z,15.95
2018-06-23T09:11:39.839Z,16.04
2018-06-23T09:12:39.999Z,16.02
2018-06-23T09:13:40.195Z,15.84
2018-06-23T09:14:40.357Z,15.79
2018-06-23T09:15:40.535Z,15.70
2018-06-23T09:16:40.702Z,15.76
2018-06-23T09:17:40.853Z,15.68
2018-06-23T09:18:41.024Z,15.84
2018-06-23T09:19:41.207Z,15.61
2018-06-23T09:20:41.407Z,15.79
2018-06-23T09:21:41.576Z,15.80
2018-06-23T09:22:41.766Z,15.88
2018-06-23T09:23:41.875Z,16.02
2018-06-23T09:24:42.057Z,15.79
2018-06-23T09:25:42.232Z,15.91
2018-06-23T09:26:42.402Z,15.76
2018-06-23T09:27:42.564Z,15.76
2018-06-23T09:28:44.967Z,15.83
2018-06-23T09:29:42.899Z,15.82
2018-06-23T09:30:43.128Z,15.86
2018-06-23T09:31:43.235Z,15.65
2018-06-23T09:32:43.417Z,15.64
2018-06-23T09:33:43.616Z,15.77
2018-06-23T09:34:44.047Z,15.77
2018-06-23T09:35:43.992Z,15.77
2018-06-23T09:36:44.181Z,15.88
2018-06-23T09:37:44.345Z,15.88
2018-06-23T09:38:44.510Z,15.82
2018-06-23T09:39:44.686Z,15.73
2018-06-23T09:40:44.856Z,15.64
2018-06-23T09:41:45.028Z,15.43
2018-06-23T09:42:45.201Z,15.59
2018-06-23T09:43:45.370Z,15.40
2018-06-23T09:44:45.736Z,15.40
2018-06-23T09:45:45.759Z,15.42
2018-06-23T09:46:45.888Z,15.51
2018-06-23T09:47:46.088Z,15.57
2018-06-23T09:48:46.269Z,15.52
2018-06-23T09:49:46.446Z,15.55
2018-06-23T09:50:46.612Z,15.55
2018-06-23T09:51:46.789Z,15.54
2018-06-23T09:52:46.967Z,15.43
2018-06-23T09:53:47.124Z,15.42
2018-06-23T09:54:47.292Z,15.37
2018-06-23T09:55:47.497Z,15.42
2018-06-23T09:56:47.638Z,15.42
2018-06-23T09:57:47.928Z,15.51
2018-06-23T09:58:48.036Z,15.49
2018-06-23T09:59:48.208Z,15.49
2018-06-23T10:00:48.382Z,15.62
2018-06-23T10:01:48.545Z,15.64
2018-06-23T10:02:48.735Z,15.72
2018-06-23T10:03:48.910Z,15.76
2018-06-23T10:04:49.088Z,15.79
2018-06-23T10:05:49.289Z,15.72
2018-06-23T10:06:49.434Z,15.73
2018-06-23T10:07:49.593Z,15.59
2018-06-23T10:08:49.755Z,15.52
2018-06-23T10:09:49.937Z,15.40
2018-06-23T10:10:50.109Z,15.43
2018-06-23T10:11:50.281Z,15.21
2018-06-23T10:12:50.457Z,15.21
2018-06-23T10:13:50.637Z,15.27
2018-06-23T10:14:50.816Z,15.18
2018-06-23T10:15:50.988Z,15.27
2018-06-23T10:16:51.172Z,15.29
2018-06-23T10:17:51.343Z,15.28
2018-06-23T10:18:51.524Z,15.33
2018-06-23T10:19:51.701Z,15.27
2018-06-23T10:20:51.884Z,15.33
2018-06-23T10:21:52.076Z,15.27
2018-06-23T10:22:52.249Z,15.25
2018-06-23T10:23:52.429Z,15.19
2018-06-23T10:24:52.597Z,15.11
2018-06-23T10:25:52.804Z,15.03
2018-06-23T10:26:52.966Z,15.09
2018-06-23T10:27:53.144Z,15.17
2018-06-23T10:28:53.316Z,15.10
2018-06-23T10:29:53.481Z,15.14
2018-06-23T10:30:53.651Z,15.21
2018-06-23T10:31:54.101Z,15.27
2018-06-23T10:32:54.067Z,15.27
2018-06-23T10:33:54.199Z,15.19
2018-06-23T10:34:54.367Z,15.21
2018-06-23T10:35:54.543Z,15.18
2018-06-23T10:36:54.720Z,15.17
2018-06-23T10:37:54.901Z,15.18
2018-06-23T10:38:55.071Z,15.29
2018-06-23T10:39:55.245Z,15.36
2018-06-23T10:40:55.443Z,15.40
2018-06-23T10:41:55.594Z,15.46
2018-06-23T10:42:55.772Z,15.24
2018-06-23T10:43:55.951Z,15.24
2018-06-23T10:44:56.158Z,15.21
2018-06-23T10:45:56.309Z,15.28
2018-06-23T10:46:56.482Z,15.28
2018-06-23T10:47:56.670Z,15.14
2018-06-23T10:48:56.837Z,15.02
2018-06-23T10:49:57.010Z,15.02
2018-06-23T10:50:57.210Z,14.99
2018-06-23T10:51:57.386Z,14.97
2018-06-23T10:52:57.528Z,14.88
2018-06-23T10:53:57.689Z,14.85
2018-06-23T10:54:57.858Z,14.77
2018-06-23T10:55:58.038Z,14.63
2018-06-23T10:56:58.198Z,14.66
2018-06-23T10:57:58.398Z,14.72
2018-06-23T10:58:58.578Z,14.88
2018-06-23T10:59:58.748Z,14.97
2018-06-23T11:00:58.931Z,14.73
2018-06-23T11:01:59.095Z,14.69
2018-06-23T11:02:59.274Z,14.63
2018-06-23T11:04:59.790Z,14.79
2018-06-23T11:05:59.807Z,14.73
2018-06-23T11:06:59.974Z,14.69
2018-06-23T11:08:00.155Z,14.73
2018-06-23T11:09:00.324Z,14.82
2018-06-23T11:10:00.526Z,14.91
2018-06-23T11:11:00.674Z,14.94
2018-06-23T11:12:00.840Z,15.03
2018-06-23T11:13:01.011Z,15.06
2018-06-23T11:14:01.186Z,15.14
2018-06-23T11:15:01.356Z,15.09
2018-06-23T11:16:01.769Z,15.28
2018-06-23T11:17:01.714Z,15.28
2018-06-23T11:18:01.893Z,15.37
2018-06-23T11:19:02.051Z,15.46
2018-06-23T11:20:02.205Z,15.51
2018-06-23T11:21:02.365Z,15.58
2018-06-23T11:22:02.546Z,15.72
2018-06-23T11:23:02.711Z,15.86
2018-06-23T11:24:02.903Z,15.97
2018-06-23T11:25:03.081Z,15.95
2018-06-23T11:26:03.260Z,15.94
2018-06-23T11:27:03.437Z,15.91
2018-06-23T11:28:03.606Z,15.91
2018-06-23T11:29:03.781Z,15.84
2018-06-23T11:30:03.959Z,15.90
2018-06-23T11:31:04.100Z,15.91
2018-06-23T11:32:04.288Z,15.92
2018-06-23T11:33:04.434Z,15.90
2018-06-23T11:34:04.663Z,16.01
2018-06-23T11:35:04.844Z,16.10
2018-06-23T11:36:05.033Z,16.02
2018-06-23T11:37:05.255Z,15.98
2018-06-23T11:38:05.397Z,16.10
2018-06-23T11:39:05.537Z,16.10
2018-06-23T11:40:05.698Z,16.08
2018-06-23T11:41:05.870Z,16.13
2018-06-23T11:42:06.040Z,16.05
2018-06-23T11:43:06.230Z,16.13
2018-06-23T11:44:06.367Z,16.15
2018-06-23T11:45:06.552Z,16.29
2018-06-23T11:46:06.720Z,16.36
2018-06-23T11:47:06.914Z,16.35
2018-06-23T11:48:07.094Z,16.23
2018-06-23T11:49:07.255Z,16.38
2018-06-23T11:50:07.401Z,16.31
2018-06-23T11:51:07.586Z,16.33
2018-06-23T11:52:07.791Z,16.20
2018-06-23T11:53:08.026Z,16.31
2018-06-23T11:54:08.145Z,16.32
2018-06-23T11:55:08.308Z,16.21
2018-06-23T11:56:08.498Z,16.42
2018-06-23T11:57:08.640Z,16.38
2018-06-23T11:58:08.811Z,16.46
2018-06-23T11:59:09.007Z,16.38
2018-06-23T12:00:09.258Z,16.51
2018-06-23T12:01:09.357Z,16.46
2018-06-23T12:02:09.544Z,16.51
2018-06-23T12:03:09.721Z,16.51
2018-06-23T12:04:09.892Z,16.57
2018-06-23T12:05:10.082Z,16.51
2018-06-23T12:06:10.287Z,16.51
2018-06-23T12:07:10.443Z,16.51
2018-06-23T12:08:10.600Z,16.60
2018-06-23T12:09:10.847Z,16.72
2018-06-23T12:10:10.953Z,16.61
2018-06-23T12:11:11.112Z,16.56
2018-06-23T12:12:11.309Z,16.60
2018-06-23T12:13:11.492Z,16.69
2018-06-23T12:14:11.657Z,16.69
2018-06-23T12:15:11.846Z,16.72
2018-06-23T12:16:12.015Z,16.71
2018-06-23T12:17:12.188Z,16.78
2018-06-23T12:18:12.377Z,16.86
2018-06-23T12:19:12.546Z,16.83
2018-06-23T12:20:12.795Z,17.09
2018-06-23T12:21:12.896Z,17.16
2018-06-23T12:22:13.058Z,17.26
2018-06-23T12:23:13.234Z,17.16
2018-06-23T12:24:13.389Z,17.36
2018-06-23T12:25:13.570Z,17.46
2018-06-23T12:26:13.742Z,17.65
2018-06-23T12:27:13.915Z,17.48
2018-06-23T12:29:14.259Z,17.57
2018-06-23T12:30:14.441Z,17.57
2018-06-23T12:31:14.638Z,17.64
2018-06-23T12:32:14.790Z,17.63
2018-06-23T12:33:14.968Z,17.70
2018-06-23T12:34:15.148Z,17.57
2018-06-23T12:35:15.340Z,17.59
2018-06-23T12:36:15.501Z,17.46
2018-06-23T12:37:15.654Z,17.72
2018-06-23T12:38:16.241Z,17.67
2018-06-23T12:39:15.988Z,17.63
2018-06-23T12:40:16.205Z,17.70
2018-06-23T12:41:16.335Z,17.63
2018-06-23T12:42:16.496Z,17.60
2018-06-23T12:43:16.678Z,17.56
2018-06-23T12:44:16.833Z,17.49
2018-06-23T12:45:17.005Z,17.70
2018-06-23T12:46:17.162Z,17.63
2018-06-23T12:47:17.363Z,17.63
2018-06-23T12:48:17.505Z,17.52
2018-06-23T12:49:17.707Z,17.27
2018-06-23T12:50:17.841Z,17.30
2018-06-23T12:51:18.435Z,17.34
2018-06-23T12:52:18.212Z,17.52
2018-06-23T12:53:18.367Z,17.45
2018-06-23T12:54:18.539Z,17.41
2018-06-23T12:55:18.712Z,17.39
2018-06-23T12:56:18.878Z,17.44
2018-06-23T12:57:19.037Z,17.49
2018-06-23T12:58:19.235Z,17.45
2018-06-23T12:59:19.398Z,17.60
2018-06-23T13:00:19.568Z,17.65